createdAt,value
2022-08-04T00:00:59.622Z,0.00
2022-08-04T00:01:59.687Z,0.00
2022-08-04T00:02:59.663Z,0.00
2022-08-04T00:03:59.580Z,0.00
2022-08-04T00:04:59.566Z,0.00
2022-08-04T00:05:59.613Z,0.00
2022-08-04T00:06:59.562Z,0.00
2022-08-04T00:07:59.544Z,0.00
2022-08-04T00:08:59.529Z,0.00
2022-08-04T00:09:59.613Z,0.00
2022-08-04T00:10:59.499Z,0.00
2022-08-04T00:11:59.510Z,0.00
2022-08-04T00:12:59.509Z,0.00
2022-08-04T00:14:02.913Z,0.00
2022-08-04T00:14:59.459Z,0.00
2022-08-04T00:15:59.444Z,0.00
2022-08-04T00:16:59.508Z,0.00
2022-08-04T00:17:59.420Z,0.00
2022-08-04T00:18:59.410Z,0.00
2022-08-04T00:19:59.403Z,0.00
2022-08-04T00:20:59.414Z,0.00
2022-08-04T00:21:59.400Z,0.00
2022-08-04T00:22:59.363Z,0.00
2022-08-04T00:24:12.081Z,0.00
2022-08-04T00:25:00.391Z,0.00
2022-08-04T00:25:59.336Z,0.00
2022-08-04T00:26:59.343Z,0.00
2022-08-04T00:27:59.319Z,0.00
2022-08-04T00:28:59.332Z,0.00
2022-08-04T00:29:59.302Z,0.00
2022-08-04T00:30:59.301Z,0.00
2022-08-04T00:31:59.292Z,0.00
2022-08-04T00:32:59.279Z,0.00
2022-08-04T00:33:59.251Z,0.00
2022-08-04T00:34:59.305Z,0.00
2022-08-04T00:35:59.216Z,0.00
2022-08-04T00:36:59.273Z,0.00
2022-08-04T00:37:59.197Z,0.00
2022-08-04T00:38:59.245Z,0.00
2022-08-04T00:39:59.178Z,0.00
2022-08-04T00:40:59.260Z,0.00
2022-08-04T00:41:59.161Z,0.00
2022-08-04T00:42:59.677Z,0.00
2022-08-04T00:43:59.136Z,0.00
2022-08-04T00:44:59.127Z,0.00
2022-08-04T00:46:09.509Z,0.00
2022-08-04T00:47:00.166Z,0.00
2022-08-04T00:47:59.103Z,0.00
2022-08-04T00:48:59.073Z,0.00
2022-08-04T00:49:59.066Z,0.00
2022-08-04T00:50:59.078Z,0.00
2022-08-04T00:52:30.771Z,0.00
2022-08-04T00:53:00.052Z,0.00
2022-08-04T00:53:59.032Z,0.00
2022-08-04T00:54:59.047Z,0.00
2022-08-04T00:55:59.098Z,0.00
2022-08-04T00:56:59.003Z,0.00
2022-08-04T00:57:58.982Z,0.00
2022-08-04T00:58:59.090Z,0.00
2022-08-04T00:59:58.949Z,0.00
2022-08-04T01:00:59.026Z,0.00
2022-08-04T01:01:58.935Z,0.00
2022-08-04T01:02:58.923Z,0.00
2022-08-04T01:03:58.907Z,0.00
2022-08-04T01:04:58.928Z,0.00
2022-08-04T01:05:58.891Z,0.00
2022-08-04T01:06:58.874Z,0.00
2022-08-04T01:07:58.931Z,0.00
2022-08-04T01:08:58.852Z,0.00
2022-08-04T01:09:58.871Z,0.00
2022-08-04T01:10:58.826Z,0.00
2022-08-04T01:11:58.822Z,0.00
2022-08-04T01:12:58.809Z,0.00
2022-08-04T01:13:58.796Z,0.00
2022-08-04T01:14:58.780Z,0.00
2022-08-04T01:16:00.624Z,0.00
2022-08-04T01:16:58.757Z,0.00
2022-08-04T01:17:58.750Z,0.00
2022-08-04T01:18:58.735Z,0.00
2022-08-04T01:19:58.725Z,0.00
2022-08-04T01:20:58.723Z,0.00
2022-08-04T01:21:58.798Z,0.00
2022-08-04T01:22:58.695Z,0.00
2022-08-04T01:23:58.683Z,0.00
2022-08-04T01:24:58.674Z,0.00
2022-08-04T01:25:58.674Z,0.00
2022-08-04T01:26:58.776Z,0.00
2022-08-04T01:27:58.639Z,0.00
2022-08-04T01:28:58.678Z,0.00
2022-08-04T01:29:58.614Z,0.00
2022-08-04T01:30:58.600Z,0.00
2022-08-04T01:31:58.634Z,0.00
2022-08-04T01:32:58.618Z,0.00
2022-08-04T01:34:03.717Z,0.00
2022-08-04T01:34:59.561Z,0.00
2022-08-04T01:35:58.638Z,0.00
2022-08-04T01:36:58.580Z,0.00
2022-08-04T01:37:58.550Z,0.00
2022-08-04T01:38:58.549Z,0.00
2022-08-04T01:39:58.491Z,0.00
2022-08-04T01:40:58.549Z,0.00
2022-08-04T01:41:58.811Z,0.00
2022-08-04T01:42:58.481Z,0.00
2022-08-04T01:43:58.527Z,0.00
2022-08-04T01:44:58.462Z,0.00
2022-08-04T01:45:58.429Z,0.00
2022-08-04T01:46:58.423Z,0.00
2022-08-04T01:47:58.427Z,0.00
2022-08-04T01:48:58.401Z,0.00
2022-08-04T01:49:58.381Z,0.00
2022-08-04T01:50:58.455Z,0.00
2022-08-04T01:51:58.363Z,0.00
2022-08-04T01:52:58.362Z,0.00
2022-08-04T01:53:58.346Z,0.00
2022-08-04T01:54:58.331Z,0.00
2022-08-04T01:55:58.311Z,0.00
2022-08-04T01:56:58.316Z,0.00
2022-08-04T01:57:58.311Z,0.00
2022-08-04T01:58:58.283Z,0.00
2022-08-04T01:59:58.275Z,0.00
2022-08-04T02:00:58.370Z,0.00
2022-08-04T02:01:58.419Z,0.00
2022-08-04T02:02:58.263Z,0.00
2022-08-04T02:04:18.242Z,0.00
2022-08-04T02:04:59.271Z,0.00
2022-08-04T02:06:03.058Z,0.00
2022-08-04T02:06:59.193Z,0.00
2022-08-04T02:07:58.171Z,0.00
2022-08-04T02:08:58.179Z,0.00
2022-08-04T02:09:58.155Z,0.00
2022-08-04T02:10:58.138Z,0.00
2022-08-04T02:11:58.208Z,0.00
2022-08-04T02:12:58.124Z,0.00
2022-08-04T02:13:58.129Z,0.00
2022-08-04T02:14:58.105Z,0.00
2022-08-04T02:15:58.089Z,0.00
2022-08-04T02:16:58.072Z,0.00
2022-08-04T02:17:58.063Z,0.00
2022-08-04T02:18:58.085Z,0.00
2022-08-04T02:19:58.037Z,0.00
2022-08-04T02:20:58.105Z,0.00
2022-08-04T02:21:58.022Z,0.00
2022-08-04T02:22:58.008Z,0.00
2022-08-04T02:23:58.011Z,0.00
2022-08-04T02:24:57.991Z,0.00
2022-08-04T02:25:57.981Z,0.00
2022-08-04T02:26:57.979Z,0.00
2022-08-04T02:27:59.704Z,0.00
2022-08-04T02:28:58.052Z,0.00
2022-08-04T02:29:57.926Z,0.00
2022-08-04T02:30:57.913Z,0.00
2022-08-04T02:31:57.925Z,0.00
2022-08-04T02:32:57.895Z,0.00
2022-08-04T02:33:57.898Z,0.00
2022-08-04T02:34:57.875Z,0.00
2022-08-04T02:35:57.855Z,0.00
2022-08-04T02:36:57.852Z,0.00
2022-08-04T02:37:57.875Z,0.00
2022-08-04T02:38:57.945Z,0.00
2022-08-04T02:39:57.813Z,0.00
2022-08-04T02:40:58.864Z,0.00
2022-08-04T02:41:57.795Z,0.00
2022-08-04T02:42:57.775Z,0.00
2022-08-04T02:43:57.816Z,0.00
2022-08-04T02:44:57.821Z,0.00
2022-08-04T02:45:57.767Z,0.00
2022-08-04T02:46:57.750Z,0.00
2022-08-04T02:48:29.567Z,0.00
2022-08-04T02:48:58.750Z,0.00
2022-08-04T02:49:57.699Z,0.00
2022-08-04T02:50:57.697Z,0.00
2022-08-04T02:51:57.697Z,0.00
2022-08-04T02:52:57.663Z,0.00
2022-08-04T02:53:57.661Z,0.00
2022-08-04T02:54:57.657Z,0.00
2022-08-04T02:55:57.634Z,0.00
2022-08-04T02:56:57.612Z,0.00
2022-08-04T02:57:57.623Z,0.00
2022-08-04T02:58:57.629Z,0.00
2022-08-04T02:59:57.584Z,0.00
2022-08-04T03:00:57.665Z,0.00
2022-08-04T03:01:58.405Z,0.00
2022-08-04T03:02:57.571Z,0.00
2022-08-04T03:03:57.558Z,0.00
2022-08-04T03:04:57.523Z,0.00
2022-08-04T03:06:00.647Z,0.00
2022-08-04T03:06:57.505Z,0.00
2022-08-04T03:07:57.528Z,0.00
2022-08-04T03:08:57.490Z,0.00
2022-08-04T03:09:57.472Z,4.00
2022-08-04T03:10:57.455Z,4.00
2022-08-04T03:11:57.538Z,4.00
2022-08-04T03:12:58.680Z,0.00
2022-08-04T03:13:57.431Z,0.00
2022-08-04T03:14:57.419Z,4.00
2022-08-04T03:15:57.399Z,4.00
2022-08-04T03:16:57.409Z,8.00
2022-08-04T03:17:57.398Z,4.00
2022-08-04T03:18:57.422Z,8.00
2022-08-04T03:19:57.366Z,4.00
2022-08-04T03:20:57.367Z,8.00
2022-08-04T03:21:57.344Z,8.00
2022-08-04T03:23:12.581Z,8.00
2022-08-04T03:23:58.313Z,12.00
2022-08-04T03:24:57.295Z,8.00
2022-08-04T03:25:57.785Z,12.00
2022-08-04T03:26:57.273Z,12.00
2022-08-04T03:27:57.278Z,16.00
2022-08-04T03:28:57.253Z,16.00
2022-08-04T03:29:57.239Z,16.00
2022-08-04T03:30:57.232Z,20.00
2022-08-04T03:31:57.272Z,20.00
2022-08-04T03:32:57.221Z,20.00
2022-08-04T03:33:57.200Z,24.00
2022-08-04T03:34:57.188Z,24.00
2022-08-04T03:35:57.183Z,28.00
2022-08-04T03:36:57.171Z,28.00
2022-08-04T03:37:57.259Z,32.00
2022-08-04T03:38:57.584Z,32.00
2022-08-04T03:39:57.140Z,36.00
2022-08-04T03:40:57.121Z,36.00
2022-08-04T03:42:04.206Z,40.00
2022-08-04T03:42:58.114Z,40.00
2022-08-04T03:43:59.747Z,44.00
2022-08-04T03:44:57.093Z,44.00
2022-08-04T03:45:57.073Z,52.00
2022-08-04T03:46:57.048Z,52.00
2022-08-04T03:47:57.049Z,56.00
2022-08-04T03:48:57.035Z,60.00
2022-08-04T03:49:57.016Z,64.00
2022-08-04T03:50:57.015Z,64.00
2022-08-04T03:51:56.994Z,68.00
2022-08-04T03:52:56.993Z,68.00
2022-08-04T03:53:57.035Z,72.00
2022-08-04T03:54:56.957Z,72.00
2022-08-04T03:55:56.949Z,76.00
2022-08-04T03:56:56.940Z,80.00
2022-08-04T03:57:56.934Z,80.00
2022-08-04T03:58:56.910Z,84.00
2022-08-04T03:59:56.954Z,88.00
2022-08-04T04:00:56.891Z,92.00
2022-08-04T04:02:02.700Z,96.00
2022-08-04T04:02:57.953Z,96.00
2022-08-04T04:03:56.864Z,96.00
2022-08-04T04:04:56.843Z,100.00
2022-08-04T04:05:59.997Z,104.00
2022-08-04T04:06:57.831Z,104.00
2022-08-04T04:08:01.318Z,108.00
2022-08-04T04:08:56.810Z,112.00
2022-08-04T04:10:01.221Z,116.00
2022-08-04T04:10:57.776Z,120.00
2022-08-04T04:11:57.813Z,120.00
2022-08-04T04:12:56.781Z,124.00
2022-08-04T04:13:56.763Z,124.00
2022-08-04T04:14:56.731Z,128.00
2022-08-04T04:15:56.737Z,132.00
2022-08-04T04:16:56.714Z,132.00
2022-08-04T04:17:56.696Z,136.00
2022-08-04T04:18:56.706Z,136.00
2022-08-04T04:19:58.297Z,140.00
2022-08-04T04:20:56.731Z,144.00
2022-08-04T04:21:56.660Z,144.00
2022-08-04T04:22:56.647Z,152.00
2022-08-04T04:23:56.648Z,152.00
2022-08-04T04:24:56.624Z,152.00
2022-08-04T04:25:56.697Z,160.00
2022-08-04T04:26:56.593Z,164.00
2022-08-04T04:27:56.585Z,168.00
2022-08-04T04:29:01.575Z,172.00
2022-08-04T04:29:57.562Z,172.00
2022-08-04T04:30:56.546Z,172.00
2022-08-04T04:31:56.546Z,176.00
2022-08-04T04:32:56.526Z,176.00
2022-08-04T04:33:56.636Z,180.00
2022-08-04T04:34:56.505Z,180.00
2022-08-04T04:35:56.498Z,184.00
2022-08-04T04:36:56.483Z,184.00
2022-08-04T04:37:56.477Z,192.00
2022-08-04T04:38:56.561Z,196.00
2022-08-04T04:39:56.504Z,196.00
2022-08-04T04:40:56.430Z,200.00
2022-08-04T04:41:56.440Z,204.00
2022-08-04T04:42:56.424Z,208.00
2022-08-04T04:43:56.420Z,208.00
2022-08-04T04:44:56.410Z,208.00
2022-08-04T04:45:56.447Z,212.00
2022-08-04T04:46:56.366Z,216.00
2022-08-04T04:48:07.632Z,216.00
2022-08-04T04:48:57.371Z,220.00
2022-08-04T04:49:56.335Z,224.00
2022-08-04T04:50:56.330Z,228.00
2022-08-04T04:51:56.319Z,228.00
2022-08-04T04:52:56.301Z,232.00
2022-08-04T04:54:00.453Z,232.00
2022-08-04T04:54:56.284Z,232.00
2022-08-04T04:55:56.263Z,236.00
2022-08-04T04:56:56.259Z,236.00
2022-08-04T04:57:56.255Z,240.00
2022-08-04T04:58:56.247Z,240.00
2022-08-04T04:59:56.228Z,244.00
2022-08-04T05:00:56.209Z,244.00
2022-08-04T05:01:56.201Z,240.00
2022-08-04T05:03:00.369Z,240.00
2022-08-04T05:03:56.187Z,244.00
2022-08-04T05:04:56.169Z,248.00
2022-08-04T05:05:56.164Z,248.00
2022-08-04T05:06:56.141Z,248.00
2022-08-04T05:07:56.137Z,252.00
2022-08-04T05:08:56.141Z,252.00
2022-08-04T05:09:56.108Z,256.00
2022-08-04T05:10:56.102Z,256.00
2022-08-04T05:11:56.134Z,260.00
2022-08-04T05:14:32.022Z,260.00
2022-08-04T05:14:36.356Z,264.00
2022-08-04T05:14:57.047Z,264.00
2022-08-04T05:15:56.044Z,264.00
2022-08-04T05:16:56.027Z,268.00
2022-08-04T05:17:56.061Z,272.00
2022-08-04T05:18:56.011Z,272.00
2022-08-04T05:19:56.010Z,272.00
2022-08-04T05:20:56.004Z,280.00
2022-08-04T05:21:55.965Z,280.00
2022-08-04T05:22:55.966Z,284.00
2022-08-04T05:23:55.948Z,284.00
2022-08-04T05:24:56.030Z,288.00
2022-08-04T05:25:59.832Z,288.00
2022-08-04T05:26:55.912Z,292.00
2022-08-04T05:27:55.938Z,292.00
2022-08-04T05:28:55.890Z,300.00
2022-08-04T05:29:55.893Z,304.00
2022-08-04T05:30:55.897Z,308.00
2022-08-04T05:31:55.874Z,308.00
2022-08-04T05:32:57.387Z,312.00
2022-08-04T05:33:55.846Z,316.00
2022-08-04T05:34:55.835Z,320.00
2022-08-04T05:36:20.579Z,328.00
2022-08-04T05:36:56.861Z,336.00
2022-08-04T05:38:01.203Z,344.00
2022-08-04T05:38:56.795Z,352.00
2022-08-04T05:39:55.786Z,360.00
2022-08-04T05:40:55.754Z,364.00
2022-08-04T05:42:04.650Z,372.00
2022-08-04T05:42:56.735Z,376.00
2022-08-04T05:43:55.719Z,384.00
2022-08-04T05:44:55.794Z,388.00
2022-08-04T05:45:55.704Z,392.00
2022-08-04T05:46:55.691Z,396.00
2022-08-04T05:47:55.673Z,404.00
2022-08-04T05:48:55.657Z,408.00
2022-08-04T05:50:02.081Z,412.00
2022-08-04T05:51:00.777Z,420.00
2022-08-04T05:51:55.628Z,420.00
2022-08-04T05:52:59.901Z,424.00
2022-08-04T05:53:56.613Z,432.00
2022-08-04T05:54:55.614Z,444.00
2022-08-04T05:55:58.447Z,508.00
2022-08-04T05:56:55.605Z,512.00
2022-08-04T05:57:55.835Z,516.00
2022-08-04T05:58:55.547Z,524.00
2022-08-04T05:59:55.565Z,528.00
2022-08-04T06:00:55.521Z,532.00
2022-08-04T06:01:57.257Z,544.00
2022-08-04T06:02:55.556Z,556.00
2022-08-04T06:03:55.495Z,564.00
2022-08-04T06:04:55.492Z,576.00
2022-08-04T06:05:55.474Z,584.00
2022-08-04T06:06:55.467Z,596.00
2022-08-04T06:08:07.736Z,600.00
2022-08-04T06:08:56.451Z,612.00
2022-08-04T06:09:55.453Z,616.00
2022-08-04T06:10:55.420Z,628.00
2022-08-04T06:12:01.937Z,640.00
2022-08-04T06:12:56.445Z,648.00
2022-08-04T06:13:55.388Z,656.00
2022-08-04T06:14:59.704Z,668.00
2022-08-04T06:15:55.352Z,676.00
2022-08-04T06:16:55.344Z,688.00
2022-08-04T06:19:59.163Z,696.00
2022-08-04T06:20:00.625Z,712.00
2022-08-04T06:20:17.886Z,720.00
2022-08-04T06:20:56.305Z,728.00
2022-08-04T06:21:55.294Z,740.00
2022-08-04T06:22:55.304Z,748.00
2022-08-04T06:24:02.350Z,756.00
2022-08-04T06:24:56.278Z,768.00
2022-08-04T06:25:55.252Z,780.00
2022-08-04T06:26:55.232Z,792.00
2022-08-04T06:27:55.221Z,800.00
2022-08-04T06:28:55.207Z,812.00
2022-08-04T06:29:55.233Z,824.00
2022-08-04T06:30:55.202Z,836.00
2022-08-04T06:32:27.107Z,848.00
2022-08-04T06:33:03.947Z,860.00
2022-08-04T06:33:56.158Z,872.00
2022-08-04T06:34:55.148Z,884.00
2022-08-04T06:35:55.158Z,896.00
2022-08-04T06:36:55.186Z,908.00
2022-08-04T06:38:00.397Z,920.00
2022-08-04T06:38:58.819Z,932.00
2022-08-04T06:39:55.087Z,944.00
2022-08-04T06:40:55.087Z,952.00
2022-08-04T06:42:16.953Z,960.00
2022-08-04T06:42:56.064Z,964.00
2022-08-04T06:43:55.047Z,988.00
2022-08-04T06:44:55.032Z,1000.00
2022-08-04T06:45:55.135Z,1016.00
2022-08-04T06:46:55.009Z,1032.00
2022-08-04T06:47:55.023Z,1060.00
2022-08-04T06:48:54.985Z,1076.00
2022-08-04T06:51:25.532Z,1092.00
2022-08-04T06:51:26.621Z,1108.00
2022-08-04T06:51:55.978Z,1124.00
2022-08-04T06:52:54.947Z,1120.00
2022-08-04T06:53:54.944Z,1128.00
2022-08-04T06:54:54.916Z,1156.00
2022-08-04T06:55:55.007Z,1168.00
2022-08-04T06:56:54.900Z,1176.00
2022-08-04T06:57:58.385Z,1192.00
2022-08-04T06:58:55.879Z,1208.00
2022-08-04T06:59:54.862Z,1216.00
2022-08-04T07:00:54.870Z,1236.00
2022-08-04T07:01:54.886Z,1248.00
2022-08-04T07:02:54.876Z,1268.00
2022-08-04T07:03:54.822Z,1284.00
2022-08-04T07:04:54.817Z,1304.00
2022-08-04T07:05:54.809Z,1312.00
2022-08-04T07:06:54.791Z,1328.00
2022-08-04T07:07:58.219Z,1320.00
2022-08-04T07:08:54.765Z,1336.00
2022-08-04T07:09:54.762Z,1348.00
2022-08-04T07:10:54.753Z,1364.00
2022-08-04T07:11:54.772Z,1384.00
2022-08-04T07:12:54.728Z,1392.00
2022-08-04T07:13:54.706Z,1404.00
2022-08-04T07:14:54.708Z,1424.00
2022-08-04T07:15:54.711Z,1432.00
2022-08-04T07:16:54.674Z,1448.00
2022-08-04T07:17:54.664Z,1460.00
2022-08-04T07:18:54.719Z,1472.00
2022-08-04T07:19:54.633Z,1488.00
2022-08-04T07:20:54.649Z,1500.00
2022-08-04T07:22:18.879Z,1512.00
2022-08-04T07:22:55.618Z,1524.00
2022-08-04T07:23:54.591Z,1540.00
2022-08-04T07:24:54.588Z,1552.00
2022-08-04T07:25:59.422Z,1572.00
2022-08-04T07:26:55.575Z,1588.00
2022-08-04T07:27:54.564Z,1608.00
2022-08-04T07:28:54.562Z,1620.00
2022-08-04T07:29:54.523Z,1640.00
2022-08-04T07:30:54.553Z,1660.00
2022-08-04T07:31:54.637Z,1680.00
2022-08-04T07:32:54.495Z,1696.00
2022-08-04T07:34:21.334Z,1712.00
2022-08-04T07:34:55.541Z,1724.00
2022-08-04T07:36:05.928Z,1736.00
2022-08-04T07:36:56.093Z,1744.00
2022-08-04T07:37:54.441Z,1752.00
2022-08-04T07:38:54.556Z,1760.00
2022-08-04T07:39:54.464Z,1768.00
2022-08-04T07:40:54.420Z,1780.00
2022-08-04T07:41:54.401Z,1800.00
2022-08-04T07:42:54.385Z,1812.00
2022-08-04T07:43:54.429Z,1828.00
2022-08-04T07:44:54.371Z,1844.00
2022-08-04T07:45:54.371Z,1860.00
2022-08-04T07:46:54.345Z,1868.00
2022-08-04T07:48:05.296Z,1880.00
2022-08-04T07:48:55.311Z,1900.00
2022-08-04T07:49:57.714Z,1908.00
2022-08-04T07:50:54.314Z,1924.00
2022-08-04T07:51:54.292Z,1944.00
2022-08-04T07:53:15.364Z,1960.00
2022-08-04T07:53:56.442Z,1972.00
2022-08-04T07:54:54.249Z,1992.00
2022-08-04T07:55:54.259Z,2004.00
2022-08-04T07:56:54.226Z,2008.00
2022-08-04T07:57:54.216Z,2024.00
2022-08-04T07:58:54.208Z,2036.00
2022-08-04T07:59:54.246Z,2052.00
2022-08-04T08:00:54.201Z,2052.00
2022-08-04T08:01:54.175Z,2084.00
2022-08-04T08:02:54.161Z,2096.00
2022-08-04T08:03:54.251Z,2108.00
2022-08-04T08:04:54.145Z,2128.00
2022-08-04T08:06:17.600Z,2144.00
2022-08-04T08:06:55.109Z,2164.00
2022-08-04T08:07:54.944Z,2188.00
2022-08-04T08:08:54.094Z,2212.00
2022-08-04T08:09:54.080Z,2240.00
2022-08-04T08:10:54.198Z,2280.00
2022-08-04T08:12:36.859Z,2324.00
2022-08-04T08:12:55.061Z,2368.00
2022-08-04T08:13:54.047Z,2428.00
2022-08-04T08:14:54.036Z,2520.00
2022-08-04T08:15:54.035Z,2620.00
2022-08-04T08:16:54.005Z,2680.00
2022-08-04T08:17:57.819Z,2712.00
2022-08-04T08:18:54.999Z,2740.00
2022-08-04T08:19:53.971Z,2780.00
2022-08-04T08:20:53.990Z,2836.00
2022-08-04T08:21:59.162Z,2904.00
2022-08-04T08:22:54.938Z,2976.00
2022-08-04T08:23:54.054Z,3024.00
2022-08-04T08:24:53.917Z,3068.00
2022-08-04T08:25:53.935Z,3112.00
2022-08-04T08:26:53.889Z,3140.00
2022-08-04T08:27:55.678Z,3168.00
2022-08-04T08:28:53.876Z,3196.00
2022-08-04T08:29:53.857Z,3192.00
2022-08-04T08:30:53.873Z,3248.00
2022-08-04T08:31:56.164Z,3372.00
2022-08-04T08:32:53.833Z,3448.00
2022-08-04T08:33:53.886Z,3536.00
2022-08-04T08:34:53.818Z,3596.00
2022-08-04T08:35:54.921Z,3596.00
2022-08-04T08:36:53.824Z,3508.00
2022-08-04T08:37:53.775Z,3404.00
2022-08-04T08:38:53.806Z,3260.00
2022-08-04T08:39:53.754Z,3072.00
2022-08-04T08:40:53.758Z,2916.00
2022-08-04T08:41:53.736Z,3216.00
2022-08-04T08:42:53.717Z,3320.00
2022-08-04T08:44:05.152Z,3404.00
2022-08-04T08:44:57.786Z,3444.00
2022-08-04T08:45:53.702Z,3496.00
2022-08-04T08:46:53.689Z,3584.00
2022-08-04T08:48:05.146Z,3636.00
2022-08-04T08:48:54.652Z,3704.00
2022-08-04T08:50:02.439Z,3688.00
2022-08-04T08:50:54.645Z,3636.00
2022-08-04T08:51:53.644Z,3544.00
2022-08-04T08:52:56.186Z,3584.00
2022-08-04T08:53:54.590Z,3616.00
2022-08-04T08:54:53.588Z,3652.00
2022-08-04T08:55:53.652Z,3680.00
2022-08-04T08:56:53.565Z,3748.00
2022-08-04T08:58:00.175Z,3824.00
2022-08-04T08:58:54.580Z,3928.00
2022-08-04T08:59:53.547Z,4028.00
2022-08-04T09:00:53.534Z,4232.00
2022-08-04T09:01:53.641Z,4496.00
2022-08-04T09:03:04.126Z,4764.00
2022-08-04T09:03:54.575Z,5112.00
2022-08-04T09:04:53.497Z,5464.00
2022-08-04T09:05:53.478Z,6160.00
2022-08-04T09:06:53.474Z,7192.00
2022-08-04T09:07:53.461Z,8700.00
2022-08-04T09:08:53.438Z,11188.00
2022-08-04T09:09:53.506Z,19296.00
2022-08-04T09:10:53.461Z,30816.00
2022-08-04T09:11:53.400Z,38752.00
2022-08-04T09:12:53.399Z,41280.00
2022-08-04T09:13:53.384Z,43520.00
2022-08-04T09:14:53.374Z,44512.00
2022-08-04T09:15:54.367Z,44672.00
2022-08-04T09:16:53.367Z,42752.00
2022-08-04T09:17:53.336Z,47328.00
2022-08-04T09:18:53.328Z,47776.00
2022-08-04T09:19:53.324Z,49984.00
2022-08-04T09:20:53.338Z,53440.00
2022-08-04T09:21:53.306Z,57216.00
2022-08-04T09:22:53.307Z,59072.00
2022-08-04T09:23:53.274Z,60192.00
2022-08-04T09:24:53.268Z,59968.00
2022-08-04T09:25:53.261Z,59584.00
2022-08-04T09:26:59.737Z,58656.00
2022-08-04T09:27:54.241Z,58432.00
2022-08-04T09:28:54.686Z,57600.00
2022-08-04T09:29:53.219Z,59872.00
2022-08-04T09:30:53.207Z,59520.00
2022-08-04T09:32:06.951Z,59712.00
2022-08-04T09:32:54.188Z,60384.00
2022-08-04T09:33:53.181Z,61120.00
2022-08-04T09:35:03.449Z,60224.00
2022-08-04T09:35:54.179Z,59136.00
2022-08-04T09:36:53.171Z,59968.00
2022-08-04T09:37:53.150Z,63584.00
2022-08-04T09:38:53.288Z,64224.00
2022-08-04T09:39:53.140Z,65440.00
2022-08-04T09:40:56.878Z,68608.00
2022-08-04T09:41:53.128Z,67072.00
2022-08-04T09:42:53.122Z,66304.00
2022-08-04T09:44:43.218Z,66208.00
2022-08-04T09:44:57.633Z,65088.00
2022-08-04T09:45:54.110Z,64896.00
2022-08-04T09:46:53.073Z,63232.00
2022-08-04T09:47:53.051Z,63744.00
2022-08-04T09:48:53.047Z,60960.00
2022-08-04T09:49:53.035Z,63520.00
2022-08-04T09:50:53.071Z,62400.00
2022-08-04T09:51:57.261Z,63328.00
2022-08-04T09:52:54.047Z,61248.00
2022-08-04T09:53:53.000Z,60544.00
2022-08-04T09:54:52.995Z,61184.00
2022-08-04T09:55:53.545Z,54752.00
2022-08-04T09:56:52.987Z,55936.00
2022-08-04T09:57:52.957Z,56064.00
2022-08-04T09:58:52.984Z,56288.00
2022-08-04T09:59:52.940Z,52992.00
2022-08-04T10:00:52.945Z,49760.00
2022-08-04T10:01:59.014Z,48768.00
2022-08-04T10:02:54.030Z,55776.00
2022-08-04T10:03:52.901Z,55072.00
2022-08-04T10:04:52.955Z,54496.00
2022-08-04T10:05:52.889Z,57216.00
2022-08-04T10:06:52.885Z,62144.00
2022-08-04T10:07:59.644Z,63584.00
2022-08-04T10:08:56.979Z,66880.00
2022-08-04T10:09:52.852Z,66208.00
2022-08-04T10:10:52.853Z,65184.00
2022-08-04T10:11:55.359Z,62688.00
2022-08-04T10:12:52.819Z,64672.00
2022-08-04T10:13:52.830Z,69472.00
2022-08-04T10:14:52.811Z,72288.00
2022-08-04T10:15:52.797Z,69952.00
2022-08-04T10:16:52.836Z,72256.00
2022-08-04T10:17:52.876Z,71936.00
2022-08-04T10:18:52.776Z,72800.00
2022-08-04T10:19:52.759Z,71552.00
2022-08-04T10:20:57.385Z,72000.00
2022-08-04T10:21:59.691Z,65408.00
2022-08-04T10:23:10.562Z,48864.00
2022-08-04T10:23:56.076Z,19360.00
2022-08-04T10:24:53.714Z,7212.00
2022-08-04T10:26:06.195Z,6200.00
2022-08-04T10:26:57.357Z,6184.00
2022-08-04T10:27:52.726Z,4912.00
2022-08-04T10:28:52.675Z,5156.00
2022-08-04T10:29:52.665Z,4380.00
2022-08-04T10:30:52.653Z,4396.00
2022-08-04T10:31:52.666Z,5396.00
2022-08-04T10:32:52.638Z,12364.00
2022-08-04T10:33:52.643Z,7808.00
2022-08-04T10:34:52.613Z,4136.00
2022-08-04T10:35:52.611Z,50560.00
2022-08-04T10:36:52.615Z,28384.00
2022-08-04T10:37:54.628Z,5060.00
2022-08-04T10:38:53.665Z,5400.00
2022-08-04T10:39:52.679Z,5376.00
2022-08-04T10:40:53.571Z,7096.00
2022-08-04T10:41:52.562Z,9656.00
2022-08-04T10:42:52.538Z,6944.00
2022-08-04T10:43:52.529Z,5556.00
2022-08-04T10:44:57.305Z,4412.00
2022-08-04T10:45:56.074Z,4132.00
2022-08-04T10:46:52.525Z,4064.00
2022-08-04T10:47:53.502Z,3544.00
2022-08-04T10:48:52.479Z,3536.00
2022-08-04T10:49:52.469Z,3472.00
2022-08-04T10:50:56.889Z,3640.00
2022-08-04T10:51:57.263Z,3668.00
2022-08-04T10:52:53.442Z,3720.00
2022-08-04T10:53:52.433Z,55648.00
2022-08-04T10:54:52.429Z,9492.00
2022-08-04T10:56:06.297Z,14752.00
2022-08-04T10:56:56.791Z,6388.00
2022-08-04T10:57:52.437Z,10772.00
2022-08-04T10:58:52.393Z,16192.00
2022-08-04T10:59:52.384Z,5476.00
2022-08-04T11:00:53.357Z,6216.00
2022-08-04T11:02:03.301Z,5312.00
2022-08-04T11:02:53.388Z,11188.00
2022-08-04T11:03:52.325Z,32864.00
2022-08-04T11:04:52.350Z,46528.00
2022-08-04T11:05:52.307Z,29888.00
2022-08-04T11:06:52.308Z,3932.00
2022-08-04T11:07:52.290Z,4040.00
2022-08-04T11:08:52.276Z,3332.00
2022-08-04T11:09:52.263Z,3228.00
2022-08-04T11:10:52.281Z,3248.00
2022-08-04T11:12:01.448Z,3224.00
2022-08-04T11:12:53.234Z,3084.00
2022-08-04T11:13:52.224Z,2876.00
2022-08-04T11:14:52.223Z,2884.00
2022-08-04T11:15:52.200Z,3000.00
2022-08-04T11:16:52.211Z,2872.00
2022-08-04T11:17:52.232Z,2820.00
2022-08-04T11:18:52.170Z,2644.00
2022-08-04T11:19:54.508Z,2556.00
2022-08-04T11:20:53.156Z,2548.00
2022-08-04T11:21:52.165Z,2532.00
2022-08-04T11:22:52.147Z,2616.00
2022-08-04T11:23:52.132Z,2624.00
2022-08-04T11:24:52.172Z,2660.00
2022-08-04T11:25:52.467Z,2768.00
2022-08-04T11:26:52.106Z,2804.00
2022-08-04T11:27:52.081Z,2720.00
2022-08-04T11:29:03.309Z,2628.00
2022-08-04T11:29:53.073Z,2636.00
2022-08-04T11:30:52.065Z,2548.00
2022-08-04T11:31:52.392Z,2528.00
2022-08-04T11:32:52.030Z,2520.00
2022-08-04T11:33:52.017Z,2548.00
2022-08-04T11:34:52.851Z,2612.00
2022-08-04T11:35:51.997Z,2516.00
2022-08-04T11:36:52.006Z,2452.00
2022-08-04T11:37:52.051Z,2440.00
2022-08-04T11:38:52.486Z,2452.00
2022-08-04T11:39:51.965Z,2536.00
2022-08-04T11:41:02.767Z,2564.00
2022-08-04T11:41:52.945Z,2556.00
2022-08-04T11:42:51.927Z,2512.00
2022-08-04T11:44:00.692Z,2540.00
2022-08-04T11:44:52.898Z,2564.00
2022-08-04T11:45:51.898Z,2512.00
2022-08-04T11:46:51.899Z,2532.00
2022-08-04T11:47:51.878Z,2548.00
2022-08-04T11:48:51.873Z,2516.00
2022-08-04T11:49:57.341Z,2564.00
2022-08-04T11:50:54.007Z,2584.00
2022-08-04T11:51:51.845Z,2604.00
2022-08-04T11:52:51.820Z,2636.00
2022-08-04T11:53:51.814Z,2612.00
2022-08-04T11:54:52.825Z,2600.00
2022-08-04T11:56:08.279Z,2604.00
2022-08-04T11:56:52.835Z,2584.00
2022-08-04T11:57:54.310Z,2544.00
2022-08-04T11:58:51.758Z,2432.00
2022-08-04T11:59:51.747Z,2444.00
2022-08-04T12:00:51.741Z,2404.00
2022-08-04T12:01:51.861Z,2488.00
2022-08-04T12:02:51.754Z,2464.00
2022-08-04T12:03:59.727Z,2520.00
2022-08-04T12:04:52.698Z,2464.00
2022-08-04T12:05:51.683Z,2576.00
2022-08-04T12:07:04.570Z,2688.00
2022-08-04T12:07:52.659Z,2648.00
2022-08-04T12:08:51.721Z,2656.00
2022-08-04T12:09:51.656Z,2696.00
2022-08-04T12:10:51.637Z,2684.00
2022-08-04T12:11:51.654Z,2768.00
2022-08-04T12:12:51.617Z,2624.00
2022-08-04T12:13:51.607Z,2432.00
2022-08-04T12:14:51.630Z,2356.00
2022-08-04T12:15:51.600Z,2652.00
2022-08-04T12:16:51.589Z,2776.00
2022-08-04T12:17:52.961Z,2648.00
2022-08-04T12:18:52.507Z,2740.00
2022-08-04T12:20:05.109Z,2612.00
2022-08-04T12:20:52.583Z,2492.00
2022-08-04T12:21:55.642Z,2428.00
2022-08-04T12:22:52.542Z,2388.00
2022-08-04T12:24:00.617Z,2308.00
2022-08-04T12:24:52.479Z,2336.00
2022-08-04T12:25:51.488Z,2304.00
2022-08-04T12:26:51.522Z,2236.00
2022-08-04T12:27:51.456Z,2300.00
2022-08-04T12:29:09.605Z,2280.00